ADDS METAR Data INFO
IDs: Format: Raw Decoded Include TAF

Data at: 1351 UTC 23 Jun 2018

KBIE 231335Z AUTO 00000KT 3SM BR BKN003 BKN120 18/18 A2983 RMK AO2 T01810176
KBIE 231315Z AUTO 00000KT 2 1/2SM BR BKN003 BKN120 18/18 A2983 RMK AO2 T01780175
KBIE 231255Z AUTO 00000KT 2SM BR SCT003 18/18 A2983 RMK AO2 T01770175
KBIE 231235Z AUTO 26003KT 2SM BR CLR 18/17 A2983 RMK AO2 T01750172
KBIE 231215Z AUTO 00000KT 2 1/2SM BR SCT100 17/17 A2982 RMK AO2 T01730170
KBIE 231155Z AUTO 00000KT 2SM -RA SCT038 SCT049 BKN110 17/17 A2982 RMK AO2 T01720170 10172 20162
KBIE 231135Z AUTO 28003KT 1 3/4SM -RA OVC110 17/17 A2982 RMK AO2 T01700167
KBIE 231115Z AUTO 10003KT 1 3/4SM BR OVC110 17/17 A2978 RMK AO2 T01670165
KBIE 231055Z AUTO 00000KT 2 1/2SM BR BKN110 17/17 A2980 RMK AO2 T01670165
KBIE 231035Z AUTO 00000KT 2 1/2SM BR OVC110 17/17 A2981 RMK AO2 T01670165
KBIE 231015Z AUTO 06003KT 2 1/2SM BR BKN110 17/16 A2978 RMK AO2 T01650163
KBIE 230955Z AUTO 00000KT 2 1/2SM BR CLR 17/16 A2980 RMK AO2 T01650163
KBIE 230935Z AUTO 00000KT 2 1/2SM BR CLR 17/16 A2978 RMK AO2 T01650163
KBIE 230915Z AUTO 11004KT 2SM BR CLR 17/17 A2979 RMK AO2 T01670165
KBIE 230855Z AUTO 00000KT 2 1/2SM -RA SCT060 SCT080 BKN110 17/17 A2981 RMK AO2 T01680166
KBIE 230835Z AUTO 00000KT 3SM BR BKN110 17/17 A2982 RMK AO2 T01680166
KBIE 230815Z AUTO 32004KT 3SM BR OVC110 17/16 A2983 RMK AO2 T01650162
KBIE 230755Z AUTO 02005KT 3SM BR BKN120 17/16 A2981 RMK AO2 T01650162
KBIE 230735Z AUTO 00000KT 3SM BR SCT120 17/16 A2982 RMK AO2 T01650162
KBIE 230715Z AUTO 00000KT 3SM BR SCT120 17/16 A2983 RMK AO2 T01660162
KBIE 230655Z AUTO 00000KT 3SM BR SCT120 17/16 A2983 RMK AO2 T01650161
KBIE 230635Z AUTO 00000KT 3SM VCTS BR SCT120 16/16 A2983 RMK AO2 LTG DSNT NW T01620160
KBIE 230615Z AUTO 31003KT 3SM BR CLR 17/16 A2983 RMK AO2 LTG DSNT W T01650161
KBIE 230555Z AUTO 00000KT 5SM BR CLR 17/16 A2981 RMK AO2 LTG DSNT W T01690163 10208 20169 402100169
KBIE 230535Z AUTO 07003KT 5SM BR CLR 17/17 A2980 RMK AO2 T01720166
KBIE 230515Z AUTO 07004KT 5SM BR CLR 18/17 A2981 RMK AO2 T01750168
KBIE 230455Z AUTO 09004KT 5SM BR CLR 18/17 A2982 RMK AO2 T01760170
KBIE 230435Z AUTO 12004KT 5SM BR CLR 18/17 A2982 RMK AO2 T01760169
KBIE 230415Z AUTO 11003KT 7SM CLR 18/17 A2983 RMK AO2 T01800170
KBIE 230355Z AUTO 13003KT 7SM CLR 18/17 A2984 RMK AO2 T01830171
KBIE 230335Z AUTO 16003KT 7SM CLR 18/17 A2985 RMK AO2 T01820170
KBIE 230315Z AUTO 00000KT 7SM CLR 18/17 A2985 RMK AO2 T01770169
KBIE 230255Z AUTO 22003KT 7SM SCT030 18/17 A2986 RMK AO2 T01780170
KBIE 230235Z AUTO 23005KT 7SM SCT120 18/17 A2985 RMK AO2 T01770169
KBIE 230215Z AUTO 23003KT 10SM SCT120 18/17 A2983 RMK AO2 T01820171
KBIE 230155Z AUTO 32004KT 10SM CLR 19/17 A2982 RMK AO2 T01850169
KBIE 230135Z AUTO 02003KT 7SM SCT028 19/17 A2982 RMK AO2 T01930171
KBIE 230115Z AUTO 05005KT 10SM SCT017 OVC030 20/17 A2980 RMK AO2 T02010171
KBIE 230055Z AUTO 05007KT 10SM SCT019 SCT024 OVC032 20/17 A2981 RMK AO2 LTG DSNT SW AND W T02030168
KBIE 230035Z AUTO 04006KT 10SM SCT019 BKN025 OVC032 21/17 A2983 RMK AO2 T02060170
KBIE 230015Z AUTO 04006KT 10SM BKN019 OVC034 21/17 A2983 RMK AO2 T02070170
KBIE 222355Z AUTO 02005KT 10SM BKN017 OVC034 21/17 A2984 RMK AO2 T02060169 10210 20181
KBIE 222335Z AUTO 02004KT 10SM OVC019 21/17 A2983 RMK AO2 T02060169
KBIE 222315Z AUTO 06004KT 10SM BKN019 OVC036 20/17 A2983 RMK AO2 T02020169
KBIE 222255Z AUTO 05003KT 7SM BKN019 BKN025 OVC036 20/17 A2984 RMK AO2 LTG DSNT W T02030166
KBIE 222235Z AUTO 03004KT 10SM OVC015 20/17 A2985 RMK AO2 T01950166
KBIE 222215Z AUTO 03004KT 10SM OVC015 20/17 A2985 RMK AO2 T01950166
KBIE 222155Z AUTO 01004KT 10SM OVC015 20/17 A2986 RMK AO2 T01950166
KBIE 222135Z AUTO 36004KT 10SM OVC015 19/17 A2986 RMK AO2 T01930165
KBIE 222115Z AUTO 33003KT 10SM OVC015 19/16 A2987 RMK AO2 T01940163
KBIE 222055Z AUTO 29003KT 10SM OVC015 19/16 A2988 RMK AO2 T01910162
KBIE 222035Z AUTO 00000KT 10SM OVC015 19/16 A2988 RMK AO2 T01910160
KBIE 222015Z AUTO 29003KT 10SM OVC015 19/16 A2989 RMK AO2 T01900158
KBIE 221955Z AUTO 00000KT 10SM OVC017 19/16 A2989 RMK AO2 T01900157
KBIE 221935Z AUTO 00000KT 10SM OVC015 19/16 A2989 RMK AO2 T01900158
KBIE 221915Z AUTO 00000KT 10SM OVC015 19/16 A2990 RMK AO2 T01880158
KBIE 221855Z AUTO 00000KT 10SM OVC013 19/16 A2990 RMK AO2 T01880161
KBIE 221835Z AUTO 05003KT 10SM OVC015 19/16 A2990 RMK AO2 T01900161
KBIE 221815Z AUTO 33005KT 10SM OVC013 18/16 A2991 RMK AO2 T01820160
KBIE 221755Z AUTO 33006KT 10SM OVC013 18/16 A2992 RMK AO2 T01820160 10191 20171
KBIE 221735Z AUTO 36005KT 10SM OVC013 18/16 A2992 RMK AO2 T01820158
KBIE 221715Z AUTO 03007KT 10SM OVC013 19/16 A2991 RMK AO2 T01850160
KBIE 221655Z AUTO 01005KT 10SM OVC017 19/16 A2991 RMK AO2 T01850157
KBIE 221635Z AUTO 02007KT 10SM OVC019 19/16 A2991 RMK AO2 T01870156
KBIE 221615Z AUTO 36008KT 10SM OVC019 19/16 A2991 RMK AO2 T01890155
KBIE 221555Z AUTO 01005KT 10SM OVC019 19/16 A2991 RMK AO2 T01900156
KBIE 221535Z AUTO 34006KT 10SM SCT015 OVC021 19/16 A2991 RMK AO2 T01900157
KBIE 221515Z AUTO 35006KT 10SM SCT013 OVC021 19/16 A2991 RMK AO2 T01880159
KBIE 221455Z AUTO 35006KT 10SM SCT013 OVC019 19/16 A2991 RMK AO2 T01850160
KBIE 221435Z AUTO 36006KT 10SM OVC017 18/16 A2991 RMK AO2 T01800161
KBIE 221415Z AUTO 36006KT 10SM BKN015 OVC019 18/16 A2991 RMK AO2 T01800160
KBIE 221355Z AUTO 01006KT 10SM OVC015 18/16 A2991 RMK AO2 T01770156
KBIE 221335Z AUTO 01006KT 10SM OVC017 18/16 A2990 RMK AO2 T01790155
KBIE 221315Z AUTO 36007KT 10SM SCT014 OVC021 18/16 A2990 RMK AO2 T01780155
KBIE 221255Z AUTO 36005KT 10SM SCT011 BKN023 OVC028 18/16 A2991 RMK AO2 T01780155
KBIE 221235Z AUTO 01010KT 10SM BKN011 OVC026 18/16 A2990 RMK AO2 T01750160
KBIE 221215Z AUTO 33005KT 10SM OVC024 17/16 A2990 RMK AO2 T01730156
KBIE 221155Z AUTO 01007KT 10SM OVC024 17/16 A2989 RMK AO2 70009 T01710155 10185 20170
KBIE 221135Z AUTO 02008KT 10SM SCT011 OVC022 17/16 A2989 RMK AO2 T01700155
KBIE 221115Z AUTO 35008KT 10SM BKN011 OVC022 17/16 A2989 RMK AO2 T01700158
KBIE 221055Z AUTO 36008KT 10SM BKN011 OVC020 17/16 A2989 RMK AO2 T01720161
KBIE 221035Z AUTO 34007KT 10SM BKN009 OVC018 17/16 A2988 RMK AO2 T01730163
KBIE 221015Z AUTO 36007KT 10SM OVC009 17/17 A2988 RMK AO2 T01740165
KBIE 220955Z AUTO 34009KT 10SM OVC011 18/17 A2988 RMK AO2 T01750165
KBIE 220935Z AUTO 36008KT 10SM BKN011 OVC017 18/17 A2988 RMK AO2 T01750167
KBIE 220915Z AUTO 36009KT 10SM SCT006 OVC014 18/17 A2987 RMK AO2 T01750169
KBIE 220855Z AUTO 35008KT 7SM SCT006 OVC016 18/17 A2987 RMK AO2 T01760170
KBIE 220835Z AUTO 35009KT 10SM OVC016 18/17 A2988 RMK AO2 T01780170
KBIE 220815Z AUTO 34007KT 5SM BR OVC011 18/17 A2988 RMK AO2 T01800170
KBIE 220755Z AUTO 32008KT 10SM OVC009 18/17 A2988 RMK AO2 T01800172
KBIE 220735Z AUTO 33006KT 10SM OVC007 18/17 A2988 RMK AO2 T01810173
KBIE 220715Z AUTO 32008KT 10SM BKN007 OVC014 18/17 A2988 RMK AO2 T01810174
KBIE 220655Z AUTO 36007KT 10SM OVC016 18/17 A2988 RMK AO2 T01830172
KBIE 220635Z AUTO 01007KT 10SM OVC016 18/17 A2988 RMK AO2 T01820173
KBIE 220615Z AUTO 32008KT 10SM OVC018 18/17 A2989 RMK AO2 T01840172
KBIE 220555Z AUTO 31008KT 10SM OVC016 19/17 A2989 RMK AO2 60001 T01850174 10190 20185 402210166
KBIE 220535Z AUTO 32006KT 10SM OVC014 19/18 A2989 RMK AO2 T01850175
KBIE 220515Z AUTO 34006KT 10SM OVC014 19/17 A2988 RMK AO2 T01860173
KBIE 220455Z AUTO 35007KT 10SM OVC014 19/17 A2989 RMK AO2 T01870172
KBIE 220435Z AUTO 35008KT 10SM OVC014 19/17 A2989 RMK AO2 T01870174
KBIE 220415Z AUTO 35007KT 10SM OVC014 19/18 A2989 RMK AO2 T01860175
KBIE 220355Z AUTO 35008KT 10SM OVC016 19/18 A2989 RMK AO2 T01870175
KBIE 220335Z AUTO 34008KT 10SM SCT011 OVC018 19/18 A2989 RMK AO2 T01860175
KBIE 220315Z AUTO 34009KT 10SM BKN011 OVC020 19/18 A2989 RMK AO2 T01850175
KBIE 220255Z AUTO 33009KT 10SM OVC016 19/18 A2988 RMK AO2 60001 T01850175
KBIE 220235Z AUTO 33009KT 10SM OVC014 19/18 A2988 RMK AO2 T01850175
KBIE 220215Z AUTO 33008KT 10SM OVC011 19/18 A2988 RMK AO2 T01860176
KBIE 220155Z AUTO 33010KT 10SM OVC013 19/18 A2987 RMK AO2 T01850175